.
WxDataArchive / Data Records for 2016-02-07
2016-02-06 February 2016 2016-02-08

Data Records for Sunday, 07 February 2016

Time	Temp	Chill	HIndex	Humid	Dewpt	 Wind 	HiWind	WindDir	Rain 	Barom
-----	----	-----	------	-----	-----	------	------	-------	-----	-----
00:00	25.6	25.6	25.6	87	22.3	0	0	---	0.00	30.145 
00:05	25.7	25.7	25.7	87	22.4	0	0	---	0.00	30.145 
00:10	25.7	25.7	25.7	87	22.4	0	0	---	0.00	30.145 
00:15	25.8	25.8	25.8	87	22.5	0	0	---	0.00	30.136 
00:20	26.1	26.1	26.1	88	23.0	0	0	---	0.00	30.136 
00:25	26.3	26.3	26.3	88	23.2	0	0	---	0.00	30.136 
00:30	26.6	26.6	26.6	88	23.5	0	0	---	0.00	30.125 
00:35	26.9	26.9	26.9	88	23.8	0	0	---	0.00	30.125 
00:40	27.0	27.0	27.0	88	23.9	0	0	---	0.00	30.125 
00:45	27.3	27.3	27.3	88	24.2	0	0	---	0.00	30.120 
00:50	27.5	27.5	27.5	88	24.4	0	0	---	0.00	30.120 
00:55	27.6	27.6	27.6	88	24.5	0	0	---	0.00	30.120 
01:00	27.6	27.6	27.6	87	24.2	0	0	---	0.00	30.114 
01:05	27.8	27.8	27.8	87	24.4	0	0	---	0.00	30.114 
01:10	27.9	27.9	27.9	87	24.5	0	0	---	0.00	30.114 
01:15	28.1	28.1	28.1	87	24.7	0	0	---	0.00	30.103 
01:20	28.2	28.2	28.2	87	24.8	0	0	---	0.00	30.103 
01:25	28.4	28.4	28.4	87	25.0	0	0	---	0.00	30.103 
01:30	28.5	28.5	28.5	86	24.9	0	0	---	0.00	30.100 
01:35	28.7	28.7	28.7	86	25.1	0	0	---	0.00	30.100 
01:40	28.8	28.8	28.8	86	25.2	0	0	---	0.00	30.100 
01:45	29.1	29.1	29.1	85	25.2	0	0	---	0.00	30.099 
01:50	29.4	29.4	29.4	85	25.5	0	0	---	0.00	30.099 
01:55	29.5	29.5	29.5	84	25.3	0	1	158	0.00	30.099 
02:00	29.7	29.7	29.7	84	25.5	0	0	---	0.00	30.093 
02:05	29.8	29.8	29.8	84	25.6	0	1	158	0.00	30.093 
02:10	30.0	30.0	30.0	83	25.5	0	0	---	0.00	30.093 
02:15	30.0	30.0	30.0	83	25.5	0	0	---	0.00	30.086 
02:20	30.1	30.1	30.1	82	25.3	0	1	158	0.00	30.086 
02:25	30.0	30.0	30.0	81	24.9	0	0	---	0.00	30.086 
02:30	30.0	30.0	30.0	81	24.9	0	0	---	0.00	30.087 
02:35	30.0	30.0	30.0	81	24.9	0	0	---	0.00	30.087 
02:40	30.0	30.0	30.0	81	24.9	0	0	---	0.00	30.087 
02:45	30.0	30.0	30.0	81	24.9	0	0	---	0.00	30.083 
02:50	30.0	30.0	30.0	81	24.9	0	0	---	0.00	30.083 
02:55	30.0	30.0	30.0	81	24.9	0	0	---	0.00	30.083 
03:00	30.0	30.0	30.0	81	24.9	0	1	158	0.00	30.081 
03:05	30.1	30.1	30.1	81	25.0	0	0	---	0.00	30.081 
03:10	30.3	30.3	30.3	81	25.2	0	1	158	0.00	30.081 
03:15	30.3	30.3	30.3	81	25.2	0	0	---	0.00	30.073 
03:20	30.6	30.6	30.6	81	25.5	0	1	158	0.00	30.073 
03:25	30.7	30.7	30.7	80	25.3	0	0	---	0.00	30.073 
03:30	30.9	30.9	30.9	80	25.5	0	1	158	0.00	30.066 
03:35	31.0	31.0	31.0	79	25.3	0	0	---	0.00	30.066 
03:40	31.2	31.2	31.2	79	25.5	0	1	158	0.00	30.066 
03:45	31.2	31.2	31.2	79	25.5	0	0	---	0.00	30.063 
03:50	31.3	31.3	31.3	79	25.6	0	0	---	0.00	30.063 
03:55	31.3	31.3	31.3	78	25.3	0	1	158	0.00	30.063 
04:00	31.3	31.3	31.3	78	25.3	0	0	---	0.00	30.056 
04:05	31.2	31.2	31.2	78	25.2	0	0	---	0.00	30.056 
04:10	31.2	31.2	31.2	78	25.2	0	0	---	0.00	30.056 
04:15	31.0	31.0	31.0	78	25.0	0	0	---	0.00	30.050 
04:20	31.2	31.2	31.2	78	25.2	0	1	158	0.00	30.050 
04:25	31.3	31.3	31.3	78	25.3	0	1	158	0.00	30.050 
04:30	31.5	31.5	31.5	78	25.4	0	1	158	0.00	30.049 
04:35	31.5	31.5	31.5	77	25.1	0	1	158	0.00	30.049 
04:40	31.6	31.6	31.6	77	25.2	0	1	158	0.00	30.049 
04:45	31.8	31.8	31.8	77	25.4	0	1	158	0.00	30.043 
04:50	31.9	31.9	31.9	77	25.5	0	0	---	0.00	30.043 
04:55	31.9	31.9	31.9	77	25.5	0	1	158	0.00	30.043 
05:00	32.1	32.1	32.1	76	25.4	0	1	158	0.00	30.037 
05:05	32.2	32.2	32.2	76	25.5	0	1	158	0.00	30.037 
05:10	32.2	32.2	32.2	76	25.5	0	1	158	0.00	30.037 
05:15	32.4	32.4	32.4	76	25.7	0	0	---	0.00	30.033 
05:20	32.5	32.5	32.5	75	25.5	0	1	158	0.00	30.033 
05:25	32.7	32.7	32.7	75	25.7	0	1	158	0.00	30.033 
05:30	32.7	32.7	32.7	75	25.7	0	1	158	0.00	30.030 
05:35	32.8	32.8	32.8	75	25.8	0	1	158	0.00	30.030 
05:40	32.8	32.8	32.8	74	25.4	0	1	158	0.00	30.030 
05:45	32.9	32.9	32.9	74	25.5	0	3	248	0.00	30.024 
05:50	33.1	33.1	33.1	73	25.4	0	1	248	0.00	30.024 
05:55	33.1	33.1	33.1	73	25.4	0	1	248	0.00	30.024 
06:00	33.2	33.2	33.2	73	25.5	0	1	248	0.00	30.019 
06:05	33.4	33.4	33.4	73	25.7	0	1	248	0.00	30.019 
06:10	33.5	33.5	33.5	73	25.8	0	0	---	0.00	30.019 
06:15	33.5	33.5	33.5	72	25.5	0	1	248	0.00	30.019 
06:20	33.7	33.7	33.7	72	25.7	0	1	248	0.00	30.019 
06:25	33.7	33.7	33.7	72	25.7	0	1	248	0.00	30.019 
06:30	33.7	33.7	33.7	72	25.7	0	1	248	0.00	30.007 
06:35	33.7	33.7	33.7	72	25.7	0	1	248	0.00	30.007 
06:40	33.5	33.5	33.5	72	25.5	0	0	---	0.00	30.007 
06:45	33.5	33.5	33.5	72	25.5	0	1	248	0.00	30.001 
06:50	33.5	33.5	33.5	72	25.5	0	1	248	0.00	30.001 
06:55	33.5	33.5	33.5	72	25.5	0	1	248	0.00	30.001 
07:00	33.5	33.5	33.5	72	25.5	0	1	248	0.00	29.988 
07:05	33.5	33.5	33.5	72	25.5	0	1	248	0.00	29.988 
07:10	33.5	33.5	33.5	72	25.5	0	1	248	0.00	29.988 
07:15	33.4	33.4	33.4	72	25.4	0	1	248	0.00	29.980 
07:20	33.4	33.4	33.4	72	25.4	0	1	248	0.00	29.980 
07:25	33.1	33.1	33.1	72	25.1	0	1	248	0.00	29.980 
07:30	32.9	32.9	32.9	72	24.9	0	0	---	0.00	29.977 
07:35	32.8	32.8	32.8	73	25.1	0	0	---	0.00	29.977 
07:40	32.8	32.8	32.8	73	25.1	0	1	248	0.00	29.977 
07:45	32.7	32.7	32.7	73	25.0	0	1	248	0.00	29.973 
07:50	32.7	32.7	32.7	74	25.3	0	0	---	0.00	29.973 
07:55	32.8	32.8	32.8	74	25.4	0	1	248	0.00	29.973 
08:00	32.9	32.9	32.9	74	25.5	0	1	248	0.00	29.967 
08:05	32.9	32.9	32.9	73	25.2	0	0	---	0.00	29.967 
08:10	32.9	32.9	32.9	73	25.2	0	0	---	0.00	29.967 
08:15	32.9	32.9	32.9	73	25.2	0	1	248	0.00	29.964 
08:20	32.9	32.9	32.9	73	25.2	0	1	248	0.00	29.964 
08:25	33.1	33.1	33.1	73	25.4	0	1	248	0.00	29.964 
08:30	33.1	33.1	33.1	73	25.4	0	0	---	0.00	29.963 
08:35	33.4	33.4	33.4	73	25.7	0	3	248	0.00	29.963 
08:40	33.7	33.7	33.7	73	26.0	0	1	248	0.00	29.963 
08:45	34.0	34.0	34.0	73	26.3	0	1	248	0.00	29.960 
08:50	34.3	34.3	34.3	72	26.2	0	1	248	0.00	29.960 
08:55	34.6	34.6	34.6	72	26.5	0	2	248	0.00	29.960 
09:00	34.7	34.7	34.7	71	26.3	0	1	248	0.00	29.957 
09:05	35.0	35.0	35.0	71	26.6	0	1	248	0.00	29.957 
09:10	35.5	35.5	35.5	70	26.7	0	2	248	0.00	29.957 
09:15	35.9	35.9	35.9	69	26.7	0	2	248	0.00	29.961 
09:20	36.2	36.2	36.2	68	26.7	0	1	248	0.00	29.961 
09:25	36.5	36.5	36.5	68	27.0	0	3	68	0.00	29.961 
09:30	36.8	36.8	36.8	67	26.9	0	1	68	0.00	29.959 
09:35	36.9	36.9	36.9	67	27.0	0	2	270	0.00	29.959 
09:40	37.2	37.2	37.2	66	26.9	0	1	270	0.00	29.959 
09:45	37.2	37.2	37.2	66	26.9	0	2	270	0.00	29.959 
09:50	37.3	37.3	37.3	65	26.6	0	3	248	0.00	29.959 
09:55	37.5	37.5	37.5	65	26.8	0	2	248	0.00	29.959 
10:00	37.5	37.5	37.5	66	27.2	0	3	90	0.00	29.957 
10:05	37.6	37.6	37.6	66	27.3	0	1	90	0.00	29.957 
10:10	37.8	37.8	37.8	66	27.5	0	2	90	0.00	29.957 
10:15	38.0	38.0	38.0	65	27.3	0	3	90	0.00	29.953 
10:20	38.3	38.3	38.3	65	27.6	0	3	270	0.00	29.953 
10:25	38.8	38.8	38.8	65	28.1	0	3	270	0.00	29.953 
10:30	39.3	39.3	39.3	64	28.2	0	2	270	0.00	29.955 
10:35	39.6	39.6	39.6	62	27.7	1	3	270	0.00	29.955 
10:40	40.1	40.1	40.1	62	28.1	1	4	270	0.00	29.955 
10:45	40.5	40.5	40.5	61	28.1	1	4	248	0.00	29.952 
10:50	41.1	41.1	41.1	60	28.3	1	4	248	0.00	29.952 
10:55	41.5	41.5	41.5	60	28.7	1	2	248	0.00	29.952 
11:00	41.8	41.8	41.8	58	28.1	1	3	248	0.00	29.942 
11:05	41.9	41.9	41.9	58	28.2	1	3	248	0.00	29.942 
11:10	42.2	42.2	42.2	58	28.5	1	4	248	0.00	29.942 
11:15	42.5	42.5	42.5	58	28.8	0	2	248	0.00	29.932 
11:20	42.9	42.9	42.9	58	29.2	1	5	248	0.00	29.932 
11:25	43.1	43.1	43.1	56	28.5	2	6	248	0.00	29.932 
11:30	43.3	43.3	43.3	57	29.1	2	5	248	0.00	29.924 
11:35	43.5	43.5	43.5	57	29.3	2	6	248	0.00	29.924 
11:40	44.1	44.1	44.1	56	29.4	1	4	248	0.00	29.924 
11:45	44.5	44.5	44.5	58	30.7	1	4	68	0.00	29.912 
11:50	45.2	45.2	45.2	56	30.4	1	3	270	0.00	29.912 
11:55	45.2	45.2	45.2	55	30.0	1	7	248	0.00	29.912 
12:00	45.1	45.1	45.1	55	29.9	2	6	248	0.00	29.904 
12:05	45.1	45.1	45.1	56	30.4	1	6	248	0.00	29.904 
12:10	45.7	45.7	45.7	56	30.9	1	4	248	0.00	29.904 
12:15	46.0	46.0	46.0	55	30.7	1	3	248	0.00	29.886 
12:20	46.1	46.1	46.1	54	30.4	1	4	270	0.00	29.886 
12:25	46.2	46.2	46.2	54	30.5	2	5	248	0.00	29.886 
12:30	46.2	46.2	46.2	54	30.5	1	4	248	0.00	29.871 
12:35	46.2	46.2	46.2	53	30.0	2	7	248	0.00	29.871 
12:40	46.5	46.5	46.5	54	30.8	1	4	248	0.00	29.871 
12:45	46.8	46.8	46.8	53	30.6	1	3	248	0.00	29.854 
12:50	47.0	47.0	47.0	51	29.8	2	7	248	0.00	29.854 
12:55	46.8	46.8	46.8	52	30.1	2	6	248	0.00	29.854 
13:00	47.0	47.0	47.0	51	29.8	2	9	248	0.00	29.843 
13:05	47.1	47.1	47.1	51	29.9	2	6	248	0.00	29.843 
13:10	47.1	47.1	47.1	50	29.4	2	9	248	0.00	29.843 
13:15	47.1	47.1	47.1	51	29.9	1	4	248	0.00	29.831 
13:20	47.1	47.1	47.1	50	29.4	1	5	248	0.00	29.831 
13:25	47.1	47.1	47.1	50	29.4	2	6	270	0.00	29.831 
13:30	46.8	46.8	46.8	49	28.7	2	10	270	0.00	29.814 
13:35	46.8	46.8	46.8	49	28.7	1	5	248	0.00	29.814 
13:40	47.0	47.0	47.0	48	28.3	3	10	248	0.00	29.814 
13:45	47.1	47.1	47.1	48	28.4	1	6	248	0.00	29.807 
13:50	47.0	47.0	47.0	48	28.3	1	6	270	0.00	29.807 
13:55	47.0	47.0	47.0	48	28.3	2	9	248	0.00	29.807 
14:00	47.0	47.0	47.0	47	27.8	2	6	270	0.00	29.795 
14:05	47.0	47.0	47.0	48	28.3	2	5	270	0.00	29.795 
14:10	47.1	47.1	47.1	47	27.9	3	7	248	0.00	29.795 
14:15	47.3	47.3	47.3	48	28.6	1	5	248	0.00	29.791 
14:20	47.4	47.4	47.4	48	28.7	1	6	248	0.00	29.791 
14:25	47.6	47.6	47.6	47	28.4	1	5	248	0.00	29.791 
14:30	47.7	47.7	47.7	47	28.5	1	5	248	0.00	29.783 
14:35	47.7	47.7	47.7	46	27.9	2	6	248	0.00	29.783 
14:40	47.7	47.7	47.7	46	27.9	2	11	248	0.00	29.783 
14:45	47.7	47.7	47.7	46	27.9	2	5	248	0.00	29.774 
14:50	47.7	47.7	47.7	47	28.5	1	5	270	0.00	29.774 
14:55	47.7	47.7	47.7	46	27.9	2	10	248	0.00	29.774 
15:00	47.9	47.9	47.9	46	28.1	1	4	248	0.00	29.765 
15:05	47.7	47.7	47.7	46	27.9	2	6	248	0.00	29.765 
15:10	47.9	47.9	47.9	45	27.6	1	4	248	0.00	29.765 
15:15	48.0	48.0	48.0	44	27.1	1	5	270	0.00	29.759 
15:20	48.2	48.2	48.2	43	26.8	2	7	248	0.00	29.759 
15:25	48.3	48.3	48.3	44	27.4	1	5	248	0.00	29.759 
15:30	48.3	48.3	48.3	44	27.4	1	5	248	0.00	29.759 
15:35	48.3	48.3	48.3	43	26.9	0	2	270	0.00	29.759 
15:40	48.5	48.5	48.5	43	27.0	0	2	292	0.00	29.759 
15:45	48.6	48.6	48.6	42	26.6	1	4	248	0.00	29.758 
15:50	48.6	48.6	48.6	42	26.6	2	7	248	0.00	29.758 
15:55	48.8	48.8	48.8	42	26.7	1	6	270	0.00	29.758 
16:00	48.9	48.9	48.9	42	26.8	1	5	248	0.00	29.756 
16:05	48.9	48.9	48.9	42	26.8	1	3	270	0.00	29.756 
16:10	49.1	49.1	49.1	43	27.6	1	4	270	0.00	29.756 
16:15	49.2	49.2	49.2	42	27.1	1	6	248	0.00	29.756 
16:20	49.4	49.4	49.4	42	27.3	2	11	248	0.00	29.756 
16:25	49.4	49.4	49.4	42	27.3	1	5	248	0.00	29.756 
16:30	49.4	49.4	49.4	42	27.3	1	5	248	0.00	29.756 
16:35	49.4	49.4	49.4	42	27.3	1	3	248	0.00	29.756 
16:40	49.4	49.4	49.4	42	27.3	1	3	248	0.00	29.756 
16:45	49.2	49.2	49.2	42	27.1	1	6	248	0.00	29.758 
16:50	49.2	49.2	49.2	42	27.1	1	4	248	0.00	29.758 
16:55	49.1	49.1	49.1	42	27.0	1	3	248	0.00	29.758 
17:00	48.9	48.9	48.9	42	26.8	1	3	248	0.00	29.758 
17:05	49.1	49.1	49.1	41	26.4	1	5	248	0.00	29.758 
17:10	49.4	49.4	49.4	40	26.1	2	6	270	0.00	29.758 
17:15	49.5	49.5	49.5	40	26.2	2	6	248	0.00	29.758 
17:20	49.5	49.5	49.5	40	26.2	1	5	270	0.00	29.758 
17:25	49.4	49.4	49.4	40	26.1	1	6	248	0.00	29.758 
17:30	49.1	49.1	49.1	41	26.4	1	5	270	0.00	29.755 
17:35	48.9	48.9	48.9	41	26.2	1	4	270	0.00	29.755 
17:40	48.6	48.6	48.6	42	26.6	0	3	270	0.00	29.755 
17:45	48.3	48.3	48.3	43	26.9	1	3	270	0.00	29.757 
17:50	48.2	48.2	48.2	43	26.8	1	3	270	0.00	29.757 
17:55	48.0	48.0	48.0	44	27.1	1	4	248	0.00	29.757 
18:00	47.9	47.9	47.9	45	27.6	1	3	248	0.00	29.761 
18:05	47.7	47.7	47.7	45	27.4	1	3	248	0.00	29.761 
18:10	47.6	47.6	47.6	46	27.9	1	4	248	0.00	29.761 
18:15	47.6	47.6	47.6	46	27.9	1	4	248	0.00	29.760 
18:20	47.4	47.4	47.4	47	28.2	0	2	248	0.00	29.760 
18:25	47.3	47.3	47.3	47	28.1	0	2	248	0.00	29.760 
18:30	47.1	47.1	47.1	47	27.9	0	3	248	0.00	29.770 
18:35	47.0	47.0	47.0	48	28.3	0	1	248	0.00	29.770 
18:40	47.0	47.0	47.0	48	28.3	0	1	248	0.00	29.770 
18:45	46.8	46.8	46.8	49	28.7	0	2	248	0.00	29.771 
18:50	46.8	46.8	46.8	49	28.7	0	1	248	0.00	29.771 
18:55	46.7	46.7	46.7	50	29.1	0	1	248	0.00	29.771 
19:00	46.5	46.5	46.5	50	28.9	0	2	248	0.00	29.770 
19:05	46.4	46.4	46.4	51	29.3	0	2	248	0.00	29.770 
19:10	46.4	46.4	46.4	51	29.3	0	1	248	0.00	29.770 
19:15	46.2	46.2	46.2	52	29.6	0	2	248	0.00	29.771 
19:20	46.2	46.2	46.2	52	29.6	0	1	248	0.00	29.771 
19:25	46.4	46.4	46.4	53	30.2	1	5	248	0.00	29.771 
19:30	46.4	46.4	46.4	54	30.7	1	3	248	0.00	29.770 
19:35	46.1	46.1	46.1	55	30.8	1	3	248	0.00	29.770 
19:40	45.8	45.8	45.8	56	31.0	1	4	270	0.00	29.770 
19:45	45.7	45.7	45.7	57	31.3	1	3	270	0.00	29.772 
19:50	45.4	45.4	45.4	58	31.5	1	4	270	0.00	29.772 
19:55	45.2	45.2	45.2	59	31.7	0	3	270	0.00	29.772 
20:00	45.1	45.1	45.1	59	31.6	1	3	270	0.00	29.766 
20:05	44.9	44.9	44.9	60	31.9	1	4	270	0.00	29.766 
20:10	44.8	44.8	44.8	60	31.8	2	5	270	0.00	29.766 
20:15	44.6	44.6	44.6	61	32.0	1	3	248	0.00	29.758 
20:20	44.5	44.5	44.5	62	32.3	1	3	248	0.00	29.758 
20:25	44.3	44.3	44.3	62	32.1	1	3	248	0.00	29.758 
20:30	44.1	44.1	44.1	62	31.9	1	4	248	0.00	29.757 
20:35	43.9	43.9	43.9	63	32.1	1	4	270	0.00	29.757 
20:40	43.6	43.6	43.6	63	31.8	0	2	270	0.00	29.757 
20:45	43.5	43.5	43.5	64	32.1	0	2	270	0.00	29.754 
20:50	43.2	43.2	43.2	65	32.2	0	1	270	0.00	29.754 
20:55	43.1	43.1	43.1	65	32.1	1	3	270	0.00	29.754 
21:00	42.9	42.9	42.9	65	32.0	1	4	270	0.00	29.747 
21:05	42.8	42.8	42.8	66	32.2	0	1	270	0.00	29.747 
21:10	42.5	42.5	42.5	66	32.0	0	2	270	0.00	29.747 
21:15	42.3	42.3	42.3	67	32.1	0	3	270	0.00	29.745 
21:20	42.2	42.2	42.2	68	32.4	0	2	270	0.00	29.745 
21:25	42.1	42.1	42.1	68	32.3	1	3	270	0.00	29.745 
21:30	41.9	41.9	41.9	69	32.5	0	3	270	0.00	29.745 
21:35	41.8	41.8	41.8	69	32.4	1	2	270	0.00	29.745 
21:40	41.6	41.6	41.6	69	32.2	1	2	270	0.00	29.745 
21:45	41.3	41.3	41.3	70	32.3	0	3	270	0.00	29.741 
21:50	41.2	41.2	41.2	70	32.2	0	2	270	0.00	29.741 
21:55	41.1	41.1	41.1	71	32.4	0	2	270	0.00	29.741 
22:00	41.1	41.1	41.1	71	32.4	0	3	270	0.00	29.741 
22:05	40.9	40.9	40.9	72	32.6	1	3	270	0.00	29.741 
22:10	40.8	40.8	40.8	72	32.5	0	1	270	0.00	29.741 
22:15	40.6	40.6	40.6	72	32.3	0	1	270	0.00	29.734 
22:20	40.5	40.5	40.5	73	32.5	0	1	270	0.00	29.734 
22:25	40.2	40.2	40.2	73	32.2	0	2	270	0.00	29.734 
22:30	40.1	40.1	40.1	73	32.2	0	1	270	0.00	29.728 
22:35	39.9	39.9	39.9	74	32.3	0	2	270	0.00	29.728 
22:40	39.6	39.6	39.6	74	32.0	0	1	270	0.00	29.728 
22:45	39.5	39.5	39.5	74	31.9	0	1	270	0.00	29.724 
22:50	39.3	39.3	39.3	75	32.0	0	1	270	0.00	29.724 
22:55	39.2	39.2	39.2	75	32.0	0	1	270	0.00	29.724 
23:00	38.9	38.9	38.9	76	32.0	0	1	270	0.00	29.722 
23:05	38.8	38.8	38.8	76	31.9	0	1	270	0.00	29.722 
23:10	38.8	38.8	38.8	77	32.2	0	1	270	0.00	29.722 
23:15	38.6	38.6	38.6	77	32.0	0	1	270	0.00	29.712 
23:20	38.5	38.5	38.5	77	31.9	0	1	270	0.00	29.712 
23:25	38.3	38.3	38.3	77	31.7	0	1	270	0.00	29.712 
23:30	38.2	38.2	38.2	77	31.6	0	1	270	0.00	29.708 
23:35	38.0	38.0	38.0	78	31.8	0	0	---	0.00	29.708 
23:40	37.9	37.9	37.9	78	31.7	0	1	270	0.00	29.708 
23:45	37.8	37.8	37.8	79	31.9	0	1	270	0.00	29.712 
23:50	37.8	37.8	37.8	79	31.9	0	1	270	0.00	29.712 
23:55	37.8	37.8	37.8	79	31.9	0	1	270	0.00	29.712 

CoCoRaHS
IN-AL-39
A2 Web Hosting
Creative Commons License
GoDaddy
search engine by freefind advanced

loaded 2018-11-14 00:28:06 • last modified 2010-11-18 10:43:29
Privacy PolicyDisclaimer
• wx.awcolley.com is powered by PmWiki v.2002016 •
• all content (unless otherwise noted) © 2018 A W Colley